Time;durP1;ratioP1;P1;durP2;ratioP2;P2;SDS_P1;SDS_P2;PMS_P1;PMS_P2;Temp;Humidity;BMP_temperature;BMP_pressure;BME280_temperature;BME280_humidity;BME280_pressure;Samples;Min_cycle;Max_cycle;Signal;HPM_P1;HPM_P2
2023/03/25 00:02:21;;;;;;;3.53;1.70;;;;;;;;;;5042150;28;20029;-77
2023/03/25 00:04:51;;;;;;;1.25;1.00;;;;;;;;;;5042168;28;20022;-80
2023/03/25 00:07:18;;;;;;;1.60;0.82;;;;;;;;;;5043629;28;20276;-77
2023/03/25 00:09:46;;;;;;;4.38;0.95;;;;;;;;;;5042518;28;20059;-80
2023/03/25 00:12:13;;;;;;;6.60;0.85;;;;;;;;;;5041682;28;20022;-81
2023/03/25 00:14:39;;;;;;;6.07;1.42;;;;;;;;;;5045271;28;20464;-79
2023/03/25 00:17:07;;;;;;;7.22;0.90;;;;;;;;;;5045418;28;20029;-80
2023/03/25 00:19:34;;;;;;;6.13;1.10;;;;;;;;;;5039726;28;20033;-79
2023/03/25 00:22:01;;;;;;;5.07;1.17;;;;;;;;;;5044328;28;20025;-80
2023/03/25 00:24:27;;;;;;;2.25;0.98;;;;;;;;;;5037031;28;20064;-80
2023/03/25 00:26:53;;;;;;;2.35;0.90;;;;;;;;;;5040335;28;20060;-80
2023/03/25 00:29:19;;;;;;;2.20;0.93;;;;;;;;;;5041859;28;20353;-80
2023/03/25 00:31:46;;;;;;;9.25;1.10;;;;;;;;;;5045578;28;20021;-82
2023/03/25 00:34:15;;;;;;;4.03;0.80;;;;;;;;;;5043933;28;20359;-80
2023/03/25 00:36:42;;;;;;;3.08;0.77;;;;;;;;;;5042987;28;20033;-79
2023/03/25 00:39:09;;;;;;;1.85;0.50;;;;;;;;;;5042658;28;20017;-76
2023/03/25 00:41:36;;;;;;;1.40;1.02;;;;;;;;;;5045077;28;20028;-80
2023/03/25 00:44:02;;;;;;;3.85;0.77;;;;;;;;;;5044365;28;20021;-80
2023/03/25 00:46:29;;;;;;;5.78;0.77;;;;;;;;;;5040913;28;20030;-80
2023/03/25 00:48:57;;;;;;;0.63;0.60;;;;;;;;;;5042922;28;20024;-76
2023/03/25 00:51:24;;;;;;;3.65;1.05;;;;;;;;;;5044064;28;20022;-76
2023/03/25 00:53:52;;;;;;;4.47;1.52;;;;;;;;;;5043636;28;20021;-77
2023/03/25 00:56:18;;;;;;;2.42;1.17;;;;;;;;;;5043326;28;20022;-76
2023/03/25 00:58:44;;;;;;;3.60;1.42;;;;;;;;;;5042705;28;20029;-77
2023/03/25 01:01:12;;;;;;;2.05;0.80;;;;;;;;;;5043307;28;20060;-77
2023/03/25 01:03:38;;;;;;;6.35;1.20;;;;;;;;;;5041226;28;20022;-77
2023/03/25 01:06:08;;;;;;;3.97;1.40;;;;;;;;;;5041654;28;20037;-76
2023/03/25 01:08:34;;;;;;;2.65;1.15;;;;;;;;;;5043041;28;20026;-79
2023/03/25 01:11:00;;;;;;;7.63;1.33;;;;;;;;;;5045474;28;20025;-79
2023/03/25 01:13:26;;;;;;;5.32;2.10;;;;;;;;;;5042124;28;20026;-80
2023/03/25 01:15:52;;;;;;;2.55;0.80;;;;;;;;;;5042651;28;20062;-80
2023/03/25 01:18:18;;;;;;;1.45;0.85;;;;;;;;;;5042059;28;20025;-80
2023/03/25 01:20:44;;;;;;;3.60;1.00;;;;;;;;;;5041830;28;20029;-80
2023/03/25 01:23:10;;;;;;;4.72;0.98;;;;;;;;;;5040762;28;20100;-77
2023/03/25 01:25:37;;;;;;;1.85;0.70;;;;;;;;;;5040011;28;20637;-76
2023/03/25 01:28:03;;;;;;;9.15;1.23;;;;;;;;;;5039307;28;20157;-79
2023/03/25 01:30:29;;;;;;;4.15;1.15;;;;;;;;;;5039804;28;20124;-76
2023/03/25 01:32:55;;;;;;;5.20;0.77;;;;;;;;;;5038094;28;20037;-76
2023/03/25 01:35:21;;;;;;;3.03;1.17;;;;;;;;;;5040032;28;20021;-77
2023/03/25 01:37:48;;;;;;;6.25;1.30;;;;;;;;;;5039944;28;20041;-78
2023/03/25 01:40:19;;;;;;;7.40;0.95;;;;;;;;;;5040137;28;20021;-76
2023/03/25 01:42:45;;;;;;;4.47;0.75;;;;;;;;;;5040024;28;20033;-78
2023/03/25 01:45:18;;;;;;;4.30;1.00;;;;;;;;;;5041622;28;20030;-76
2023/03/25 01:47:44;;;;;;;3.63;1.55;;;;;;;;;;5039592;28;20174;-79
2023/03/25 01:50:13;;;;;;;6.47;1.70;;;;;;;;;;5040697;28;20142;-77
2023/03/25 01:52:41;;;;;;;3.65;1.10;;;;;;;;;;5039816;28;20045;-76
2023/03/25 01:55:08;;;;;;;2.95;0.90;;;;;;;;;;5039003;28;20039;-77
2023/03/25 01:57:34;;;;;;;2.42;1.33;;;;;;;;;;5037407;28;20032;-76
2023/03/25 02:00:00;;;;;;;3.60;0.68;;;;;;;;;;5039941;28;20103;-74
2023/03/25 02:02:33;;;;;;;4.55;0.65;;;;;;;;;;5038677;28;20025;-74
2023/03/25 02:05:02;;;;;;;0.80;0.40;;;;;;;;;;5040446;28;20029;-76
2023/03/25 02:07:29;;;;;;;3.65;0.70;;;;;;;;;;5035262;28;20029;-74
2023/03/25 02:10:00;;;;;;;4.10;0.40;;;;;;;;;;5038832;28;20163;-75
2023/03/25 02:12:26;;;;;;;1.27;0.22;;;;;;;;;;5037143;28;20017;-75
2023/03/25 02:14:53;;;;;;;0.63;0.40;;;;;;;;;;5040329;28;20056;-75
2023/03/25 02:17:38;;;;;;;0.98;0.30;;;;;;;;;;5041698;28;20025;-75
2023/03/25 02:20:07;;;;;;;2.00;0.30;;;;;;;;;;5039804;28;20039;-75
2023/03/25 02:22:51;;;;;;;0.80;0.43;;;;;;;;;;5041971;28;20037;-75
2023/03/25 02:25:20;;;;;;;0.63;0.63;;;;;;;;;;5040925;28;20037;-75
2023/03/25 02:27:54;;;;;;;5.18;1.30;;;;;;;;;;5038863;28;20025;-78
2023/03/25 02:30:34;;;;;;;1.08;0.22;;;;;;;;;;5038563;28;20053;-79
2023/03/25 02:33:35;;;;;;;1.40;0.65;;;;;;;;;;5042096;28;20025;-77
2023/03/25 02:36:01;;;;;;;1.98;0.90;;;;;;;;;;4996345;28;20038;-78
2023/03/25 02:38:35;;;;;;;0.43;0.25;;;;;;;;;;5027570;28;20443;-81
2023/03/25 02:41:13;;;;;;;2.60;0.77;;;;;;;;;;5036654;28;20025;-77
2023/03/25 02:43:43;;;;;;;2.78;0.40;;;;;;;;;;5040084;28;20017;-80
2023/03/25 02:46:13;;;;;;;1.00;0.45;;;;;;;;;;5040440;28;20049;-79
2023/03/25 02:48:41;;;;;;;1.88;0.20;;;;;;;;;;5040776;28;20252;-80
2023/03/25 02:51:14;;;;;;;0.52;0.20;;;;;;;;;;5037627;28;20079;-79
2023/03/25 02:53:42;;;;;;;0.40;0.32;;;;;;;;;;5041088;28;20033;-79
2023/03/25 02:56:10;;;;;;;2.55;0.50;;;;;;;;;;5036848;28;20021;-80
2023/03/25 02:58:37;;;;;;;1.50;0.60;;;;;;;;;;5038800;28;20301;-79
2023/03/25 03:01:03;;;;;;;3.95;0.30;;;;;;;;;;5039383;28;20037;-79
2023/03/25 03:03:29;;;;;;;2.45;0.30;;;;;;;;;;5040389;28;20017;-79
2023/03/25 03:05:57;;;;;;;0.30;0.20;;;;;;;;;;5037683;28;20329;-76
2023/03/25 03:08:26;;;;;;;0.30;0.30;;;;;;;;;;5039232;28;20029;-79
2023/03/25 03:10:52;;;;;;;0.15;0.10;;;;;;;;;;5040519;28;20029;-79
2023/03/25 03:13:30;;;;;;;1.77;0.13;;;;;;;;;;5040047;28;20086;-79
2023/03/25 03:16:23;;;;;;;0.10;0.10;;;;;;;;;;5042043;28;20026;-80
2023/03/25 03:18:50;;;;;;;0.38;0.30;;;;;;;;;;5037673;28;20029;-74
2023/03/25 03:21:23;;;;;;;0.20;0.20;;;;;;;;;;5036695;28;20025;-75
2023/03/25 03:23:49;;;;;;;1.88;0.20;;;;;;;;;;5036304;28;20033;-74
2023/03/25 03:26:30;;;;;;;0.20;0.20;;;;;;;;;;5039340;28;20301;-76
2023/03/25 03:29:12;;;;;;;0.10;0.10;;;;;;;;;;5038440;28;20105;-79
2023/03/25 03:31:42;;;;;;;0.40;0.10;;;;;;;;;;5039793;28;20032;-76
2023/03/25 03:34:17;;;;;;;2.70;0.30;;;;;;;;;;5040295;28;20047;-77
2023/03/25 03:36:44;;;;;;;0.77;0.25;;;;;;;;;;5039104;28;20033;-79
2023/03/25 03:39:15;;;;;;;0.35;0.13;;;;;;;;;;5038027;28;20022;-80
2023/03/25 03:41:43;;;;;;;0.20;0.20;;;;;;;;;;5038239;28;20336;-77
2023/03/25 03:44:12;;;;;;;0.38;0.30;;;;;;;;;;5040709;28;20055;-76
2023/03/25 03:46:42;;;;;;;0.10;0.10;;;;;;;;;;5035608;28;20112;-80
2023/03/25 03:49:07;;;;;;;;;;;;;;;;;;5037188;28;20092;-78
2023/03/25 03:51:36;;;;;;;0.35;0.35;;;;;;;;;;5040203;28;19901;-79
2023/03/25 03:54:04;;;;;;;2.05;0.65;;;;;;;;;;5038485;28;20067;-78
2023/03/25 03:56:37;;;;;;;0.20;0.20;;;;;;;;;;5040090;28;20308;-79
2023/03/25 03:59:07;;;;;;;0.22;0.22;;;;;;;;;;5036968;28;20415;-76
2023/03/25 04:01:44;;;;;;;0.55;0.55;;;;;;;;;;5040084;28;20025;-78
2023/03/25 04:04:12;;;;;;;1.45;0.38;;;;;;;;;;5037283;28;20022;-79
2023/03/25 04:06:45;;;;;;;1.48;0.30;;;;;;;;;;5038467;28;20037;-79
2023/03/25 04:09:17;;;;;;;0.55;0.47;;;;;;;;;;5038689;28;20071;-76
2023/03/25 04:11:45;;;;;;;0.40;0.40;;;;;;;;;;5040047;28;20018;-78
2023/03/25 04:14:12;;;;;;;0.20;0.20;;;;;;;;;;5038013;28;20026;-79
2023/03/25 04:16:38;;;;;;;0.30;0.30;;;;;;;;;;5040187;28;20029;-78
2023/03/25 04:19:05;;;;;;;0.85;0.30;;;;;;;;;;5038414;28;20059;-79
2023/03/25 04:21:31;;;;;;;2.17;0.22;;;;;;;;;;5039016;28;20332;-80
2023/03/25 04:24:00;;;;;;;1.08;0.20;;;;;;;;;;5040683;28;20045;-79
2023/03/25 04:26:28;;;;;;;1.55;0.10;;;;;;;;;;5040573;28;20033;-78
2023/03/25 04:28:58;;;;;;;0.32;0.22;;;;;;;;;;5038978;28;20021;-79
2023/03/25 04:31:24;;;;;;;;;;;;;;;;;;5043215;28;20041;-80
2023/03/25 04:33:51;;;;;;;0.20;0.20;;;;;;;;;;5043573;28;19908;-79
2023/03/25 04:36:17;;;;;;;2.92;0.93;;;;;;;;;;5041386;28;20144;-79
2023/03/25 04:38:44;;;;;;;0.32;0.20;;;;;;;;;;5031870;28;20135;-79
2023/03/25 04:41:11;;;;;;;0.65;0.20;;;;;;;;;;5031711;28;20056;-78
2023/03/25 04:43:44;;;;;;;1.10;0.60;;;;;;;;;;5032567;28;20029;-79
2023/03/25 04:46:13;;;;;;;0.10;0.10;;;;;;;;;;5033042;28;20033;-78
2023/03/25 04:48:44;;;;;;;;;;;;;;;;;;5034135;28;20041;-78
2023/03/25 04:51:11;;;;;;;1.15;0.20;;;;;;;;;;5033024;28;19908;-78
2023/03/25 04:53:38;;;;;;;3.10;0.25;;;;;;;;;;5033629;28;20093;-76
2023/03/25 04:56:05;;;;;;;0.93;0.40;;;;;;;;;;5030806;28;20029;-78
2023/03/25 04:58:31;;;;;;;2.63;0.68;;;;;;;;;;5033677;28;20033;-77
2023/03/25 05:01:04;;;;;;;0.30;0.30;;;;;;;;;;5032787;28;20036;-77
2023/03/25 05:03:31;;;;;;;1.42;0.35;;;;;;;;;;5034672;28;20021;-77
2023/03/25 05:05:57;;;;;;;0.45;0.17;;;;;;;;;;5031975;28;20043;-76
2023/03/25 05:08:23;;;;;;;0.35;0.32;;;;;;;;;;5031711;28;20021;-76
2023/03/25 05:10:49;;;;;;;0.30;0.30;;;;;;;;;;5034004;28;20083;-78
2023/03/25 05:13:17;;;;;;;3.33;0.30;;;;;;;;;;5030753;28;20363;-77
2023/03/25 05:15:43;;;;;;;4.78;0.52;;;;;;;;;;5030535;28;20413;-79
2023/03/25 05:18:11;;;;;;;2.40;0.68;;;;;;;;;;5032456;28;20415;-79
2023/03/25 05:20:38;;;;;;;1.25;0.63;;;;;;;;;;5033298;28;20021;-76
2023/03/25 05:23:05;;;;;;;0.40;0.40;;;;;;;;;;5033694;28;20434;-79
2023/03/25 05:25:36;;;;;;;0.75;0.30;;;;;;;;;;5034192;28;20033;-77
2023/03/25 05:28:04;;;;;;;5.25;1.05;;;;;;;;;;5031440;28;20083;-78
2023/03/25 05:30:31;;;;;;;2.70;0.90;;;;;;;;;;5031761;28;20049;-75
2023/03/25 05:32:58;;;;;;;1.10;0.55;;;;;;;;;;5032353;28;20327;-75
2023/03/25 05:35:25;;;;;;;1.05;0.47;;;;;;;;;;5033238;28;20287;-76
2023/03/25 05:37:51;;;;;;;0.73;0.60;;;;;;;;;;5033093;28;20037;-75
2023/03/25 05:40:18;;;;;;;2.58;0.57;;;;;;;;;;5034116;28;20436;-76
2023/03/25 05:42:47;;;;;;;0.63;0.52;;;;;;;;;;5029888;28;20120;-79
2023/03/25 05:45:14;;;;;;;7.22;1.45;;;;;;;;;;5031380;28;20021;-75
2023/03/25 05:47:40;;;;;;;1.80;0.77;;;;;;;;;;5031111;28;20056;-76
2023/03/25 05:50:07;;;;;;;2.20;0.73;;;;;;;;;;5031712;28;20032;-75
2023/03/25 05:52:35;;;;;;;2.42;0.52;;;;;;;;;;5031451;28;20028;-78
2023/03/25 05:55:02;;;;;;;0.63;0.63;;;;;;;;;;5032833;28;20180;-75
2023/03/25 05:57:28;;;;;;;8.30;0.65;;;;;;;;;;5031536;28;20025;-75
2023/03/25 05:59:54;;;;;;;5.07;1.00;;;;;;;;;;5031477;28;20017;-75
2023/03/25 06:02:20;;;;;;;0.63;0.63;;;;;;;;;;5034567;28;20053;-75
2023/03/25 06:04:49;;;;;;;0.50;0.30;;;;;;;;;;5033359;28;20029;-75
2023/03/25 06:07:19;;;;;;;3.35;0.98;;;;;;;;;;5033157;28;20061;-75
2023/03/25 06:09:45;;;;;;;2.42;0.40;;;;;;;;;;5031022;28;20181;-75
2023/03/25 06:12:12;;;;;;;4.28;1.73;;;;;;;;;;5024295;28;20642;-75
2023/03/25 06:14:41;;;;;;;4.85;1.50;;;;;;;;;;5015998;28;20037;-75
2023/03/25 06:17:07;;;;;;;3.70;1.60;;;;;;;;;;5011672;28;20018;-75
2023/03/25 06:19:37;;;;;;;2.83;0.98;;;;;;;;;;5011710;28;20045;-78
2023/03/25 06:22:04;;;;;;;2.78;0.93;;;;;;;;;;5010212;28;20516;-78
2023/03/25 06:24:30;;;;;;;7.80;3.83;;;;;;;;;;5011475;28;20375;-75
2023/03/25 06:26:56;;;;;;;3.42;2.05;;;;;;;;;;5010457;28;20033;-75
2023/03/25 06:29:22;;;;;;;6.10;2.72;;;;;;;;;;5011507;28;20141;-77
2023/03/25 06:31:48;;;;;;;11.88;3.85;;;;;;;;;;5013550;28;20117;-79
2023/03/25 06:34:14;;;;;;;4.45;1.52;;;;;;;;;;5011597;28;20105;-79
2023/03/25 06:36:40;;;;;;;2.72;0.82;;;;;;;;;;5021252;28;20030;-79
2023/03/25 06:39:06;;;;;;;6.22;3.92;;;;;;;;;;5030156;28;20021;-79
2023/03/25 06:41:34;;;;;;;1.45;0.80;;;;;;;;;;5031302;28;20108;-80
2023/03/25 06:44:00;;;;;;;1.00;0.90;;;;;;;;;;5030985;28;20391;-80
2023/03/25 06:46:26;;;;;;;5.03;0.75;;;;;;;;;;5032530;28;20036;-78
2023/03/25 06:48:52;;;;;;;0.65;0.50;;;;;;;;;;5033799;28;20105;-81
2023/03/25 06:51:21;;;;;;;2.15;0.95;;;;;;;;;;5034708;28;20022;-80
2023/03/25 06:53:47;;;;;;;3.42;0.80;;;;;;;;;;5023775;28;20022;-80
2023/03/25 06:56:13;;;;;;;4.63;1.30;;;;;;;;;;5022793;28;20036;-81
2023/03/25 06:58:40;;;;;;;3.60;0.75;;;;;;;;;;5032395;28;20030;-81
2023/03/25 07:01:07;;;;;;;1.55;0.63;;;;;;;;;;5031408;28;20574;-80
2023/03/25 07:03:35;;;;;;;5.22;0.95;;;;;;;;;;5032252;28;20049;-79
2023/03/25 07:06:01;;;;;;;5.00;0.70;;;;;;;;;;5028368;28;20034;-77
2023/03/25 07:08:27;;;;;;;1.45;0.63;;;;;;;;;;5028927;28;20027;-79
2023/03/25 07:10:53;;;;;;;7.18;1.58;;;;;;;;;;5030542;28;20029;-77
2023/03/25 07:13:19;;;;;;;2.05;0.57;;;;;;;;;;5027674;28;20161;-77
2023/03/25 07:15:45;;;;;;;1.95;0.60;;;;;;;;;;5027931;28;20080;-77
2023/03/25 07:18:11;;;;;;;0.45;0.30;;;;;;;;;;5024965;28;20379;-77
2023/03/25 07:20:37;;;;;;;1.42;0.38;;;;;;;;;;5025274;28;20095;-75
2023/03/25 07:23:03;;;;;;;1.13;0.40;;;;;;;;;;5028178;28;20045;-75
2023/03/25 07:25:29;;;;;;;1.88;0.80;;;;;;;;;;5027734;28;20555;-79
2023/03/25 07:27:55;;;;;;;1.75;0.60;;;;;;;;;;5027683;28;20087;-76
2023/03/25 07:30:21;;;;;;;4.75;0.57;;;;;;;;;;5048988;28;20118;-76
2023/03/25 07:32:47;;;;;;;1.17;0.40;;;;;;;;;;5047482;28;20197;-76
2023/03/25 07:35:13;;;;;;;7.05;0.43;;;;;;;;;;5044825;28;20109;-74
2023/03/25 07:37:39;;;;;;;3.35;0.60;;;;;;;;;;5048950;28;20025;-75
2023/03/25 07:40:05;;;;;;;0.30;0.30;;;;;;;;;;5044779;28;20087;-75
2023/03/25 07:42:31;;;;;;;1.88;0.50;;;;;;;;;;5025356;28;20025;-76
2023/03/25 07:44:57;;;;;;;4.45;1.20;;;;;;;;;;5025880;28;20021;-75
2023/03/25 07:47:23;;;;;;;4.10;0.45;;;;;;;;;;5026333;28;20036;-76
2023/03/25 07:49:49;;;;;;;3.20;0.45;;;;;;;;;;5027193;28;20464;-78
2023/03/25 07:52:15;;;;;;;0.52;0.43;;;;;;;;;;5029643;28;20065;-76
2023/03/25 07:54:41;;;;;;;2.92;1.05;;;;;;;;;;5030374;28;20116;-76
2023/03/25 07:57:07;;;;;;;1.08;0.75;;;;;;;;;;5041377;28;20474;-79
2023/03/25 07:59:33;;;;;;;1.55;0.50;;;;;;;;;;5044464;28;20071;-77
2023/03/25 08:01:59;;;;;;;4.47;0.25;;;;;;;;;;5045201;28;20035;-81
2023/03/25 08:04:31;;;;;;;1.85;0.80;;;;;;;;;;5043796;28;20081;-80
2023/03/25 08:07:05;;;;;;;0.20;0.20;;;;;;;;;;5035612;28;20076;-80
2023/03/25 08:09:31;;;;;;;1.08;0.57;;;;;;;;;;5031668;28;20523;-79
2023/03/25 08:11:57;;;;;;;0.45;0.40;;;;;;;;;;5029686;28;20025;-80
2023/03/25 08:14:24;;;;;;;1.15;0.98;;;;;;;;;;5031804;28;20022;-79
2023/03/25 08:16:50;;;;;;;1.58;0.40;;;;;;;;;;5036650;28;20095;-79
2023/03/25 08:19:16;;;;;;;0.30;0.30;;;;;;;;;;5040747;28;20516;-79
2023/03/25 08:21:42;;;;;;;2.22;0.20;;;;;;;;;;5037697;28;20067;-81
2023/03/25 08:24:10;;;;;;;0.80;0.60;;;;;;;;;;5033927;28;20029;-79
2023/03/25 08:26:37;;;;;;;0.65;0.40;;;;;;;;;;5030718;28;20025;-77
2023/03/25 08:29:03;;;;;;;1.70;0.68;;;;;;;;;;5034389;28;20034;-76
2023/03/25 08:31:30;;;;;;;0.85;0.60;;;;;;;;;;5033443;28;20131;-77
2023/03/25 08:33:57;;;;;;;1.90;0.47;;;;;;;;;;5033468;28;20028;-75
2023/03/25 08:36:24;;;;;;;1.63;0.45;;;;;;;;;;5030533;28;20022;-75
2023/03/25 08:38:50;;;;;;;2.60;0.60;;;;;;;;;;5030743;28;20022;-75
2023/03/25 08:41:16;;;;;;;3.80;0.52;;;;;;;;;;5032691;28;20029;-77
2023/03/25 08:43:46;;;;;;;3.55;1.70;;;;;;;;;;5037700;28;20049;-79
2023/03/25 08:46:12;;;;;;;20.23;4.63;;;;;;;;;;5042590;28;20509;-77
2023/03/25 08:48:38;;;;;;;7.10;1.63;;;;;;;;;;5043356;28;20013;-79
2023/03/25 08:51:05;;;;;;;2.53;1.38;;;;;;;;;;5043580;28;20025;-76
2023/03/25 08:53:31;;;;;;;3.00;0.57;;;;;;;;;;5035680;28;20021;-75
2023/03/25 08:55:58;;;;;;;1.27;0.63;;;;;;;;;;5042226;28;20029;-78
2023/03/25 08:58:25;;;;;;;1.70;0.75;;;;;;;;;;5042201;28;20020;-76
2023/03/25 09:00:55;;;;;;;0.52;0.40;;;;;;;;;;5039860;28;20033;-76
2023/03/25 09:03:25;;;;;;;1.95;1.02;;;;;;;;;;5046527;28;20034;-75
2023/03/25 09:05:52;;;;;;;1.45;1.05;;;;;;;;;;5038496;28;20038;-78
2023/03/25 09:08:18;;;;;;;0.82;0.55;;;;;;;;;;5040794;28;20073;-77
2023/03/25 09:10:44;;;;;;;1.58;1.02;;;;;;;;;;5038670;28;20032;-79
2023/03/25 09:13:10;;;;;;;0.60;0.40;;;;;;;;;;5040029;28;20025;-74
2023/03/25 09:15:36;;;;;;;3.08;0.50;;;;;;;;;;5042952;28;20482;-77
2023/03/25 09:18:03;;;;;;;0.35;0.35;;;;;;;;;;5048259;28;20064;-78
2023/03/25 09:20:29;;;;;;;1.38;0.85;;;;;;;;;;5049279;28;20102;-81
2023/03/25 09:22:55;;;;;;;0.40;0.22;;;;;;;;;;5045093;28;20088;-77
2023/03/25 09:25:22;;;;;;;0.20;0.20;;;;;;;;;;5050081;28;20075;-79
2023/03/25 09:27:48;;;;;;;4.85;0.65;;;;;;;;;;5054728;28;20050;-79
2023/03/25 09:30:14;;;;;;;1.80;0.28;;;;;;;;;;5053507;28;20334;-78
2023/03/25 09:32:40;;;;;;;1.63;0.50;;;;;;;;;;5055061;28;20057;-77
2023/03/25 09:35:07;;;;;;;1.40;0.40;;;;;;;;;;5052464;28;20077;-77
2023/03/25 09:37:33;;;;;;;2.92;0.30;;;;;;;;;;5053709;28;20035;-80
2023/03/25 09:39:59;;;;;;;0.15;0.15;;;;;;;;;;5050730;28;20068;-76
2023/03/25 09:42:35;;;;;;;0.35;0.20;;;;;;;;;;5039127;28;20034;-76
2023/03/25 09:45:06;;;;;;;2.50;0.43;;;;;;;;;;5031253;28;20284;-78
2023/03/25 09:47:33;;;;;;;2.55;0.30;;;;;;;;;;5026206;28;20018;-79
2023/03/25 09:50:02;;;;;;;0.28;0.20;;;;;;;;;;5030790;28;20056;-76
2023/03/25 09:52:32;;;;;;;1.05;0.20;;;;;;;;;;5022475;28;20025;-78
2023/03/25 09:55:00;;;;;;;0.20;0.20;;;;;;;;;;5024270;28;20245;-83
2023/03/25 09:57:28;;;;;;;0.35;0.20;;;;;;;;;;5020272;28;20128;-79
2023/03/25 09:59:56;;;;;;;0.10;0.10;;;;;;;;;;5028152;28;20025;-78
2023/03/25 10:02:28;;;;;;;0.40;0.35;;;;;;;;;;5023782;28;20104;-75
2023/03/25 10:04:57;;;;;;;0.45;0.45;;;;;;;;;;5029598;28;20028;-76
2023/03/25 10:07:29;;;;;;;0.80;0.80;;;;;;;;;;5034256;28;20103;-77
2023/03/25 10:10:04;;;;;;;3.90;0.30;;;;;;;;;;5034751;28;20033;-79
2023/03/25 10:12:30;;;;;;;1.92;0.68;;;;;;;;;;5034463;28;20036;-77
2023/03/25 10:14:56;;;;;;;0.40;0.20;;;;;;;;;;5035649;28;20025;-76
2023/03/25 10:17:34;;;;;;;0.25;0.25;;;;;;;;;;5034279;28;20096;-77
2023/03/25 10:20:07;;;;;;;4.05;0.55;;;;;;;;;;5032382;28;20029;-76
2023/03/25 10:22:38;;;;;;;1.40;0.50;;;;;;;;;;5039472;28;20044;-79
2023/03/25 10:25:06;;;;;;;0.80;0.40;;;;;;;;;;5039156;28;20333;-78
2023/03/25 10:27:32;;;;;;;1.02;0.43;;;;;;;;;;5039378;28;20329;-78
2023/03/25 10:29:58;;;;;;;2.20;0.52;;;;;;;;;;5033386;28;20115;-78
2023/03/25 10:32:34;;;;;;;0.40;0.40;;;;;;;;;;5038975;28;20029;-79
2023/03/25 10:35:02;;;;;;;3.03;0.63;;;;;;;;;;5036108;28;20025;-79
2023/03/25 10:37:31;;;;;;;1.15;1.05;;;;;;;;;;5035082;28;20028;-80
2023/03/25 10:39:59;;;;;;;1.83;0.50;;;;;;;;;;5039105;28;20028;-80
2023/03/25 10:42:26;;;;;;;0.47;0.47;;;;;;;;;;5038307;28;20037;-78
2023/03/25 10:44:53;;;;;;;2.92;0.57;;;;;;;;;;5039037;28;20033;-80
2023/03/25 10:47:22;;;;;;;4.18;0.50;;;;;;;;;;5039183;28;20099;-80
2023/03/25 10:49:48;;;;;;;0.60;0.40;;;;;;;;;;5038860;28;20021;-80
2023/03/25 10:52:15;;;;;;;6.90;1.60;;;;;;;;;;5037463;28;20035;-78
2023/03/25 10:54:42;;;;;;;3.00;1.40;;;;;;;;;;5038683;28;20021;-78
2023/03/25 10:57:09;;;;;;;1.85;0.40;;;;;;;;;;5037790;28;20040;-77
2023/03/25 10:59:54;;;;;;;0.88;0.73;;;;;;;;;;5020772;28;20037;-76
2023/03/25 11:02:25;;;;;;;3.30;0.40;;;;;;;;;;5019729;28;20084;-77
2023/03/25 11:04:53;;;;;;;0.88;0.52;;;;;;;;;;5019310;28;20428;-77
2023/03/25 11:07:22;;;;;;;2.80;0.30;;;;;;;;;;5018139;28;20064;-78
2023/03/25 11:09:50;;;;;;;2.40;0.57;;;;;;;;;;5020320;28;20029;-79
2023/03/25 11:12:21;;;;;;;2.33;0.75;;;;;;;;;;5047261;28;20044;-80
2023/03/25 11:14:55;;;;;;;2.35;0.57;;;;;;;;;;5052381;28;20084;-81
2023/03/25 11:17:24;;;;;;;1.83;0.43;;;;;;;;;;5041423;28;20021;-81
2023/03/25 11:19:55;;;;;;;0.93;0.40;;;;;;;;;;5041484;28;20026;-80
2023/03/25 11:22:27;;;;;;;2.33;0.70;;;;;;;;;;5040535;28;20033;-81
2023/03/25 11:24:57;;;;;;;1.90;0.63;;;;;;;;;;5042452;28;20060;-81
2023/03/25 11:27:27;;;;;;;1.52;0.35;;;;;;;;;;5038504;28;20053;-76
2023/03/25 11:29:54;;;;;;;1.10;0.82;;;;;;;;;;5039863;28;20052;-77
2023/03/25 11:32:30;;;;;;;0.60;0.50;;;;;;;;;;5038947;28;20061;-78
2023/03/25 11:34:56;;;;;;;5.43;1.23;;;;;;;;;;5042707;28;20126;-77
2023/03/25 11:37:26;;;;;;;0.77;0.30;;;;;;;;;;5043221;28;20156;-76
2023/03/25 11:39:54;;;;;;;0.20;0.20;;;;;;;;;;5042963;28;20197;-79
2023/03/25 11:42:39;;;;;;;1.83;0.30;;;;;;;;;;5042745;28;20106;-77
2023/03/25 11:45:05;;;;;;;0.52;0.40;;;;;;;;;;5041853;28;20036;-76
2023/03/25 11:47:36;;;;;;;4.75;1.08;;;;;;;;;;5037789;28;20039;-77
2023/03/25 11:50:03;;;;;;;3.88;1.00;;;;;;;;;;5041619;28;20025;-76
2023/03/25 11:52:49;;;;;;;0.45;0.30;;;;;;;;;;5043849;28;20013;-77
2023/03/25 11:55:27;;;;;;;2.65;0.52;;;;;;;;;;5039291;28;20021;-77
2023/03/25 11:57:55;;;;;;;2.08;0.40;;;;;;;;;;5034966;28;20497;-77
2023/03/25 12:00:27;;;;;;;3.25;0.65;;;;;;;;;;5033073;28;20022;-76
2023/03/25 12:03:00;;;;;;;2.05;0.32;;;;;;;;;;5032389;28;20088;-77
2023/03/25 12:05:26;;;;;;;2.20;0.40;;;;;;;;;;5035826;28;20213;-76
2023/03/25 12:07:59;;;;;;;1.65;0.30;;;;;;;;;;5040313;28;20037;-77
2023/03/25 12:10:31;;;;;;;5.40;1.02;;;;;;;;;;5041531;28;20059;-80
2023/03/25 12:13:06;;;;;;;1.60;0.25;;;;;;;;;;5036019;28;20388;-82
2023/03/25 12:15:36;;;;;;;1.08;0.40;;;;;;;;;;5039327;28;20022;-80
2023/03/25 12:18:11;;;;;;;0.47;0.47;;;;;;;;;;5038546;28;20014;-79
2023/03/25 12:20:51;;;;;;;2.13;0.80;;;;;;;;;;5037135;28;20060;-82
2023/03/25 12:23:52;;;;;;;2.65;0.52;;;;;;;;;;5034609;28;20028;-81
2023/03/25 12:26:23;;;;;;;2.22;0.47;;;;;;;;;;5009049;28;20123;-82
2023/03/25 12:29:09;;;;;;;0.70;0.40;;;;;;;;;;5030710;28;20121;-80
2023/03/25 12:31:53;;;;;;;0.98;0.40;;;;;;;;;;5035116;28;20037;-80
2023/03/25 12:34:55;;;;;;;0.28;0.28;;;;;;;;;;5037723;28;20022;-82
2023/03/25 12:37:32;;;;;;;1.67;0.30;;;;;;;;;;5013150;28;20034;-80
2023/03/25 12:40:06;;;;;;;0.90;0.43;;;;;;;;;;5031493;28;20140;-81
2023/03/25 12:42:45;;;;;;;0.95;0.30;;;;;;;;;;5035333;28;20021;-82
2023/03/25 12:45:34;;;;;;;1.27;0.40;;;;;;;;;;5031878;28;20386;-80
2023/03/25 12:48:03;;;;;;;3.85;0.57;;;;;;;;;;5025532;28;20041;-78
2023/03/25 12:50:44;;;;;;;1.50;1.40;;;;;;;;;;5031264;28;20021;-81
2023/03/25 12:53:22;;;;;;;1.00;0.60;;;;;;;;;;5031320;28;20026;-78
2023/03/25 12:56:15;;;;;;;0.52;0.35;;;;;;;;;;5030686;28;20120;-78
2023/03/25 12:58:44;;;;;;;0.95;0.40;;;;;;;;;;5025032;28;20070;-78
2023/03/25 13:01:13;;;;;;;0.50;0.28;;;;;;;;;;5028338;28;20433;-78
2023/03/25 13:03:48;;;;;;;2.10;1.08;;;;;;;;;;5030898;28;20021;-78
2023/03/25 13:06:18;;;;;;;0.88;0.30;;;;;;;;;;5029324;28;20029;-78
2023/03/25 13:08:44;;;;;;;;;;;;;;;;;;5031001;28;20090;-77
2023/03/25 13:11:17;;;;;;;4.78;0.90;;;;;;;;;;5030854;28;19956;-78
2023/03/25 13:13:48;;;;;;;0.85;0.77;;;;;;;;;;5039725;28;20081;-78
2023/03/25 13:16:23;;;;;;;1.70;0.50;;;;;;;;;;5038978;28;20099;-75
2023/03/25 13:18:49;;;;;;;0.90;0.40;;;;;;;;;;5036806;28;20108;-77
2023/03/25 13:21:36;;;;;;;1.65;0.38;;;;;;;;;;5035503;28;20017;-78
2023/03/25 13:24:21;;;;;;;2.95;0.45;;;;;;;;;;5030797;28;20025;-80
2023/03/25 13:26:52;;;;;;;0.98;0.45;;;;;;;;;;5039016;28;20315;-78
2023/03/25 13:29:36;;;;;;;2.38;0.60;;;;;;;;;;5037367;28;20041;-78
2023/03/25 13:32:08;;;;;;;1.10;0.65;;;;;;;;;;5036352;28;20017;-81
2023/03/25 13:34:37;;;;;;;0.43;0.35;;;;;;;;;;5042185;28;20266;-81
2023/03/25 13:37:07;;;;;;;1.33;0.50;;;;;;;;;;5035115;28;20067;-81
2023/03/25 13:39:44;;;;;;;2.83;0.30;;;;;;;;;;5036711;28;20067;-80
2023/03/25 13:42:15;;;;;;;2.58;0.70;;;;;;;;;;5030386;28;20075;-80
2023/03/25 13:44:43;;;;;;;4.07;0.90;;;;;;;;;;5029507;28;20033;-78
2023/03/25 13:47:21;;;;;;;1.00;0.50;;;;;;;;;;5029395;28;20030;-77
2023/03/25 13:49:50;;;;;;;0.50;0.35;;;;;;;;;;5029319;28;20105;-78
2023/03/25 13:52:16;;;;;;;1.00;0.90;;;;;;;;;;5029606;28;20029;-78
2023/03/25 13:54:46;;;;;;;3.72;0.70;;;;;;;;;;5029405;28;20029;-77
2023/03/25 13:57:16;;;;;;;;;;;;;;;;;;5028453;28;20040;-78
2023/03/25 13:59:50;;;;;;;2.40;0.52;;;;;;;;;;5029674;28;20010;-77
2023/03/25 14:02:16;;;;;;;1.30;0.70;;;;;;;;;;5035919;28;20033;-77
2023/03/25 14:04:51;;;;;;;4.57;0.90;;;;;;;;;;5029935;28;20021;-78
2023/03/25 14:07:35;;;;;;;1.40;0.68;;;;;;;;;;5029728;28;20040;-77
2023/03/25 14:10:16;;;;;;;0.28;0.22;;;;;;;;;;5029620;28;20112;-77
2023/03/25 14:12:57;;;;;;;0.73;0.43;;;;;;;;;;5030114;28;20024;-77
2023/03/25 14:15:26;;;;;;;2.05;0.47;;;;;;;;;;5029172;28;20112;-77
2023/03/25 14:18:02;;;;;;;3.88;0.85;;;;;;;;;;5106294;27;20391;-75
2023/03/25 14:20:35;;;;;;;2.65;0.40;;;;;;;;;;5105854;28;20028;-74
2023/03/25 14:23:03;;;;;;;0.60;0.43;;;;;;;;;;5108074;28;20016;-75
2023/03/25 14:25:40;;;;;;;0.52;0.52;;;;;;;;;;5105478;28;20419;-75
2023/03/25 14:28:08;;;;;;;0.30;0.30;;;;;;;;;;5105089;28;20016;-75
2023/03/25 14:30:34;;;;;;;5.03;0.95;;;;;;;;;;5106093;28;20031;-74
2023/03/25 14:33:01;;;;;;;0.32;0.32;;;;;;;;;;5106105;28;20384;-75
2023/03/25 14:35:33;;;;;;;0.30;0.30;;;;;;;;;;5105511;28;20054;-75
2023/03/25 14:38:08;;;;;;;1.48;0.30;;;;;;;;;;5106186;28;20062;-75
2023/03/25 14:40:42;;;;;;;0.17;0.17;;;;;;;;;;5105336;28;20542;-76
2023/03/25 14:43:20;;;;;;;0.32;0.20;;;;;;;;;;5106448;28;20024;-75
2023/03/25 14:45:58;;;;;;;2.28;0.30;;;;;;;;;;5094790;28;20027;-76
2023/03/25 14:48:36;;;;;;;0.30;0.20;;;;;;;;;;5084378;28;20059;-76
2023/03/25 14:51:14;;;;;;;0.70;0.47;;;;;;;;;;5083161;28;20115;-77
2023/03/25 14:53:41;;;;;;;0.43;0.20;;;;;;;;;;5082656;28;20341;-76
2023/03/25 14:56:12;;;;;;;1.75;1.05;;;;;;;;;;5085499;28;20035;-75
2023/03/25 14:58:38;;;;;;;0.43;0.22;;;;;;;;;;5085527;28;20029;-75
2023/03/25 15:01:08;;;;;;;0.40;0.30;;;;;;;;;;5084309;28;20017;-76